Impacts METAR Board INFO
IDs:

KLAX - Los Angeles Intl, CA, US

Updated at: 2219 UTC 13 Dec 2017
Potential Impact None Slight Moderate High
Time13/10Z 13/11Z 13/12Z 13/13Z 13/14Z 13/15Z 13/16Z 13/17Z 13/18Z 13/19Z 13/20Z 13/21Z 13/22Z
VIS10 10 10 10 10 10 10 10 10 10 10 10 10
CIG-- -- -- -- -- -- -- -- -- -- -- -- --
CoverCLRCLRCLRCLRCLRSCTSCTSCTSCTFEWFEWFEWFEW
FltCatVFRVFRVFRVFRVFRVFRVFRVFRVFRVFRVFRVFRVFR
WX--------------------------
WDir011060011014090000250270270
WSpd0 4 5 3 3 3 3 0 3 0 8 10 8
WGst-- -- -- -- -- -- -- -- -- -- -- -- --
Raw hourly METARs
KLAX 130953Z 00000KT 10SM CLR 14/M07 A3002 RMK AO2 SLP161 T01441067
KLAX 131053Z 11004KT 10SM CLR 12/M03 A3002 RMK AO2 SLP161 T01171033
KLAX 131153Z 06005KT 10SM CLR 14/M08 A3000 RMK AO2 SLP157 T01391083 10194 20106 58004
KLAX 131253Z VRB03KT 10SM CLR 16/M12 A3000 RMK AO2 SLP157 T01561122
KLAX 131353Z 11003KT 10SM CLR 13/M08 A3000 RMK AO2 SLP158 T01281078
KLAX 131453Z 14003KT 10SM FEW000 FEW025 SCT120 16/M10 A3000 RMK AO2 SLP159 FU FEW000 T01561100 53001
KLAX 131553Z 09003KT 10SM FEW007 FEW027 SCT120 16/M08 A3002 RMK AO2 SLP164 FU FEW007 T01611078
KLAX 131653Z 00000KT 10SM FEW010 FEW032 SCT140 21/M11 A3003 RMK AO2 SLP167 FU FEW010 T02111106
KLAX 131753Z VRB03KT 10SM FEW012 FEW035 SCT150 24/M11 A3002 RMK AO2 SLP165 FU FEW012 T02441106 10244 20117 50009
KLAX 131853Z 00000KT 10SM FEW040 FEW160 26/M12 A3000 RMK AO2 SLP156 T02561117
KLAX 131953Z 25008KT 10SM FEW045 FEW160 26/M02 A2997 RMK AO2 SLP148 T02561017
KLAX 132053Z 27010KT 10SM FEW047 FEW110 23/03 A2995 RMK AO2 SLP141 T02280033 56025
KLAX 132153Z 27008KT 10SM FEW080 FEW160 22/01 A2994 RMK AO2 SLP137 T02220011